createdAt,value
2019-06-28T00:32:48.073Z,3.40
2019-06-28T01:09:34.307Z,2.90
2019-06-28T02:57:43.365Z,3.70
2019-06-28T03:00:50.506Z,3.70
2019-06-28T03:03:38.268Z,3.40
2019-06-28T03:06:26.019Z,3.73
2019-06-28T03:09:13.793Z,3.60
2019-06-28T03:12:01.536Z,4.17
2019-06-28T03:14:49.301Z,3.37
2019-06-28T03:17:37.072Z,3.83
2019-06-28T03:20:17.317Z,3.37
2019-06-28T03:22:57.997Z,3.50
2019-06-28T03:25:36.385Z,3.80
2019-06-28T03:28:24.121Z,4.47
2019-06-28T03:31:11.895Z,3.70
2019-06-28T03:33:59.645Z,3.40
2019-06-28T03:36:47.437Z,3.80
2019-06-28T03:39:35.242Z,3.90
2019-06-28T03:42:22.992Z,4.10
2019-06-28T03:48:25.352Z,4.03
2019-06-28T03:51:13.084Z,4.00
2019-06-28T03:54:01.115Z,3.73
2019-06-28T03:56:48.892Z,3.63
2019-06-28T03:59:36.655Z,3.60
2019-06-28T04:02:24.416Z,3.50
2019-06-28T04:05:12.149Z,3.90
2019-06-28T04:07:59.929Z,3.77
2019-06-28T04:10:47.733Z,3.80
2019-06-28T04:13:35.500Z,3.87
2019-06-28T04:16:23.597Z,4.50
2019-06-28T04:19:11.329Z,3.97
2019-06-28T04:21:59.104Z,3.90
2019-06-28T04:24:37.587Z,3.60
2019-06-28T04:27:25.604Z,3.80
2019-06-28T04:30:15.745Z,3.60
2019-06-28T04:35:37.330Z,4.27
2019-06-28T04:38:25.065Z,3.80
2019-06-28T04:41:12.828Z,4.10
2019-06-28T04:44:00.674Z,3.97
2019-06-28T04:46:48.423Z,3.97
2019-06-28T04:49:36.194Z,3.97
2019-06-28T04:52:23.967Z,4.27
2019-06-28T04:55:11.729Z,3.97
2019-06-28T04:57:59.507Z,4.33
2019-06-28T05:00:47.246Z,5.43
2019-06-28T05:03:35.221Z,4.03
2019-06-28T05:06:23.039Z,5.23
2019-06-28T05:09:10.798Z,4.40
2019-06-28T05:11:49.441Z,4.27
2019-06-28T05:14:37.200Z,4.03
2019-06-28T05:17:25.051Z,4.77
2019-06-28T05:20:12.900Z,4.10
2019-06-28T05:23:00.680Z,4.37
2019-06-28T05:25:48.449Z,5.20
2019-06-28T05:28:35.888Z,4.43
2019-06-28T05:31:23.656Z,4.50
2019-06-28T05:34:11.466Z,4.17
2019-06-28T05:36:59.256Z,4.40
2019-06-28T05:39:46.996Z,4.83
2019-06-28T05:42:34.770Z,4.50
2019-06-28T05:45:22.537Z,4.47
2019-06-28T05:48:10.347Z,4.83
2019-06-28T05:50:58.245Z,5.47
2019-06-28T05:53:45.981Z,4.87
2019-06-28T05:56:33.757Z,5.07
2019-06-28T05:59:21.502Z,4.70
2019-06-28T06:02:02.025Z,4.87
2019-06-28T06:04:40.637Z,4.63
2019-06-28T06:07:28.396Z,5.87
2019-06-28T06:10:16.257Z,5.27
2019-06-28T06:13:03.998Z,5.57
2019-06-28T06:15:51.773Z,5.00
2019-06-28T06:18:39.513Z,5.10
2019-06-28T06:21:27.282Z,5.50
2019-06-28T06:24:05.695Z,4.97
2019-06-28T06:26:53.444Z,5.47
2019-06-28T06:29:41.223Z,5.50
2019-06-28T06:32:28.992Z,5.23
2019-06-28T06:35:16.859Z,5.53
2019-06-28T06:38:04.627Z,5.03
2019-06-28T06:40:52.364Z,5.30
2019-06-28T06:43:40.130Z,5.53
2019-06-28T06:46:27.905Z,6.00
2019-06-28T06:49:15.730Z,5.37
2019-06-28T06:52:03.580Z,5.30
2019-06-28T06:54:51.368Z,5.43
2019-06-28T06:57:39.110Z,5.77
2019-06-28T07:00:27.060Z,5.53
2019-06-28T07:03:14.814Z,5.03
2019-06-28T07:06:02.556Z,5.87
2019-06-28T07:08:50.320Z,5.63
2019-06-28T07:11:38.093Z,5.20
2019-06-28T07:14:25.868Z,5.73
2019-06-28T07:17:13.610Z,5.70
2019-06-28T07:20:01.385Z,5.13
2019-06-28T07:22:39.761Z,5.90
2019-06-28T07:25:27.573Z,5.50
2019-06-28T07:28:15.568Z,5.43
2019-06-28T07:33:58.676Z,5.20
2019-06-28T07:36:46.420Z,5.20
2019-06-28T07:39:53.506Z,5.43
2019-06-28T07:42:41.265Z,6.50
2019-06-28T07:45:29.039Z,5.93
2019-06-28T07:48:16.829Z,5.60
2019-06-28T07:51:04.662Z,5.17
2019-06-28T07:53:52.476Z,5.73
2019-06-28T07:56:40.230Z,5.13
2019-06-28T07:59:27.995Z,5.57
2019-06-28T08:02:15.757Z,5.00
2019-06-28T08:08:31.121Z,5.80
2019-06-28T08:11:18.885Z,6.07
2019-06-28T08:14:06.621Z,5.80
2019-06-28T08:16:54.452Z,5.73
2019-06-28T08:19:42.217Z,4.70
2019-06-28T08:22:49.144Z,5.40
2019-06-28T08:25:29.504Z,7.30
2019-06-28T08:28:10.120Z,5.47
2019-06-28T08:30:48.421Z,5.77
2019-06-28T08:33:36.240Z,5.20
2019-06-28T08:36:24.059Z,5.33
2019-06-28T08:39:11.820Z,5.83
2019-06-28T08:41:59.617Z,5.13
2019-06-28T08:44:47.504Z,6.60
2019-06-28T08:47:35.264Z,5.57
2019-06-28T08:50:23.034Z,5.40
2019-06-28T08:53:10.775Z,5.63
2019-06-28T08:55:58.565Z,11.33
2019-06-28T09:01:16.528Z,4.93
2019-06-28T09:04:04.280Z,4.73
2019-06-28T09:06:52.039Z,4.90
2019-06-28T09:09:20.467Z,5.20
2019-06-28T09:12:08.898Z,5.13
2019-06-28T09:14:57.933Z,5.07
2019-06-28T09:17:45.725Z,5.40
2019-06-28T09:20:33.489Z,5.13
2019-06-28T09:23:21.601Z,5.47
2019-06-28T09:26:09.457Z,4.87
2019-06-28T09:28:57.218Z,5.53
2019-06-28T09:31:35.550Z,5.07
2019-06-28T09:34:23.713Z,5.10
2019-06-28T09:37:14.653Z,5.73
2019-06-28T09:40:00.950Z,5.57
2019-06-28T09:42:48.742Z,5.17
2019-06-28T09:45:36.501Z,5.30
2019-06-28T09:48:24.533Z,4.70
2019-06-28T09:51:12.284Z,4.72
2019-06-28T09:54:00.053Z,5.50
2019-06-28T09:56:47.805Z,5.60
2019-06-28T09:59:35.584Z,5.53
2019-06-28T10:02:23.325Z,5.43
2019-06-28T10:05:11.089Z,5.72
2019-06-28T10:07:58.836Z,6.20
2019-06-28T10:10:46.698Z,6.10
2019-06-28T10:13:34.457Z,5.77
2019-06-28T10:16:25.912Z,5.97
2019-06-28T10:19:11.672Z,5.93
2019-06-28T10:21:59.450Z,5.83
2019-06-28T10:24:48.250Z,6.67
2019-06-28T10:27:36.736Z,5.30
2019-06-28T10:30:24.685Z,5.07
2019-06-28T10:33:31.817Z,5.67
2019-06-28T10:36:19.592Z,5.20
2019-06-28T10:39:07.362Z,5.90
2019-06-28T10:41:55.115Z,6.33
2019-06-28T10:44:42.865Z,5.73
2019-06-28T10:47:30.645Z,5.73
2019-06-28T10:53:32.871Z,6.03
2019-06-28T10:56:27.177Z,6.10
2019-06-28T10:59:10.115Z,6.10
2019-06-28T11:01:57.875Z,6.63
2019-06-28T11:04:45.704Z,5.90
2019-06-28T11:07:33.448Z,4.97
2019-06-28T11:10:21.222Z,5.92
2019-06-28T11:13:09.047Z,6.20
2019-06-28T11:15:47.821Z,4.90
2019-06-28T11:18:35.597Z,5.80
2019-06-28T11:21:23.404Z,5.97
2019-06-28T11:24:11.254Z,5.65
2019-06-28T11:26:59.059Z,4.90
2019-06-28T11:29:46.860Z,5.42
2019-06-28T11:32:34.631Z,5.15
2019-06-28T11:35:22.389Z,5.10
2019-06-28T11:38:10.164Z,4.97
2019-06-28T11:40:57.936Z,5.10
2019-06-28T11:44:05.014Z,4.25
2019-06-28T11:46:52.769Z,4.67
2019-06-28T11:49:40.513Z,4.70
2019-06-28T11:52:28.289Z,4.72
2019-06-28T11:55:16.029Z,4.92
2019-06-28T11:58:03.792Z,4.92
2019-06-28T12:00:51.565Z,5.37
2019-06-28T12:03:39.336Z,4.47
2019-06-28T12:06:27.122Z,5.10
2019-06-28T12:09:14.898Z,5.37
2019-06-28T12:12:02.722Z,5.00
2019-06-28T12:14:43.069Z,5.12
2019-06-28T12:17:31.775Z,5.25
2019-06-28T12:20:07.289Z,5.05
2019-06-28T12:22:55.039Z,4.95
2019-06-28T12:25:42.976Z,4.85
2019-06-28T12:28:30.721Z,4.35
2019-06-28T12:31:18.523Z,4.58
2019-06-28T12:34:06.282Z,4.08
2019-06-28T12:36:54.069Z,4.22
2019-06-28T12:39:41.863Z,4.35
2019-06-28T12:42:29.607Z,3.77
2019-06-28T12:45:17.444Z,3.33
2019-06-28T12:48:05.187Z,3.70
2019-06-28T12:50:52.967Z,3.55
2019-06-28T12:53:40.708Z,6.08
2019-06-28T12:56:28.547Z,4.65
2019-06-28T12:59:16.388Z,5.00
2019-06-28T13:02:04.769Z,3.85
2019-06-28T13:04:54.249Z,3.33
2019-06-28T13:07:42.016Z,4.17
2019-06-28T13:10:29.845Z,4.80
2019-06-28T13:13:17.620Z,4.70
2019-06-28T13:16:05.407Z,4.90
2019-06-28T13:18:47.840Z,4.47
2019-06-28T13:21:26.224Z,5.00
2019-06-28T13:24:07.221Z,4.97
2019-06-28T13:26:48.024Z,5.30
2019-06-28T13:29:26.305Z,4.83
2019-06-28T13:32:14.073Z,4.85
2019-06-28T13:35:01.893Z,4.92
2019-06-28T13:37:49.649Z,4.42
2019-06-28T13:40:37.395Z,4.45
2019-06-28T13:43:25.170Z,4.33
2019-06-28T13:46:12.941Z,4.53
2019-06-28T13:49:00.686Z,4.15
2019-06-28T13:51:48.528Z,4.25
2019-06-28T13:54:36.286Z,4.95
2019-06-28T13:57:24.058Z,4.10
2019-06-28T14:00:12.134Z,4.78
2019-06-28T14:02:59.913Z,4.40
2019-06-28T14:05:47.694Z,3.95
2019-06-28T14:08:35.772Z,4.20
2019-06-28T14:11:23.878Z,4.20
2019-06-28T14:14:11.671Z,4.72
2019-06-28T14:16:59.500Z,4.40
2019-06-28T14:19:38.566Z,4.60
2019-06-28T14:22:26.314Z,4.33
2019-06-28T14:25:14.145Z,4.28
2019-06-28T14:27:42.847Z,4.83
2019-06-28T14:30:30.629Z,3.98
2019-06-28T14:33:18.385Z,4.30
2019-06-28T14:36:06.132Z,4.45
2019-06-28T14:38:53.904Z,4.17
2019-06-28T14:41:41.689Z,3.83
2019-06-28T14:44:29.427Z,4.15
2019-06-28T14:47:17.224Z,4.30
2019-06-28T14:59:40.333Z,4.20
2019-06-28T15:02:28.104Z,3.55
2019-06-28T15:05:15.960Z,3.50
2019-06-28T15:08:03.711Z,3.30
2019-06-28T15:10:51.483Z,3.67
2019-06-28T15:13:39.261Z,4.25
2019-06-28T15:16:19.696Z,3.47
2019-06-28T15:19:11.528Z,3.72
2019-06-28T15:21:42.817Z,3.25
2019-06-28T15:24:23.384Z,3.40
2019-06-28T15:27:03.997Z,3.25
2019-06-28T15:29:42.464Z,3.00
2019-06-28T15:32:30.267Z,3.67
2019-06-28T15:35:18.156Z,3.55
2019-06-28T15:38:05.909Z,3.45
2019-06-28T15:40:53.755Z,3.05
2019-06-28T15:43:41.497Z,4.00
2019-06-28T15:46:29.263Z,2.70
2019-06-28T15:49:29.398Z,3.45
2019-06-28T15:52:06.483Z,3.25
2019-06-28T15:54:54.237Z,3.90
2019-06-28T15:57:22.691Z,3.47
2019-06-28T16:00:10.628Z,3.10
2019-06-28T16:02:58.388Z,3.77
2019-06-28T16:05:48.348Z,3.27
2019-06-28T16:08:35.634Z,3.40
2019-06-28T16:11:23.375Z,3.65
2019-06-28T16:14:11.162Z,3.77
2019-06-28T16:16:58.909Z,4.00
2019-06-28T16:19:46.689Z,3.70
2019-06-28T16:22:34.472Z,3.52
2019-06-28T16:25:14.703Z,4.15
2019-06-28T16:27:53.269Z,3.35
2019-06-28T16:30:41.035Z,3.27
2019-06-28T16:33:28.872Z,3.52
2019-06-28T16:36:16.648Z,4.10
2019-06-28T16:42:12.988Z,3.55
2019-06-28T16:45:00.722Z,3.15
2019-06-28T16:47:48.511Z,3.17
2019-06-28T16:50:36.277Z,3.17
2019-06-28T16:53:24.033Z,3.55
2019-06-28T16:56:11.801Z,3.27
2019-06-28T16:58:59.575Z,3.70
2019-06-28T17:01:47.315Z,3.50
2019-06-28T17:04:35.157Z,3.30
2019-06-28T17:07:22.900Z,3.33
2019-06-28T17:13:05.958Z,4.13
2019-06-28T17:15:46.178Z,3.43
2019-06-28T17:18:25.602Z,3.40
2019-06-28T17:21:13.618Z,3.53
2019-06-28T17:24:01.565Z,3.30
2019-06-28T17:26:49.344Z,3.45
2019-06-28T17:29:37.104Z,3.72
2019-06-28T17:32:24.895Z,3.33
2019-06-28T17:35:12.822Z,3.30
2019-06-28T17:38:00.572Z,3.50
2019-06-28T17:40:48.315Z,3.53
2019-06-28T17:43:36.094Z,3.30
2019-06-28T17:46:23.836Z,3.43
2019-06-28T17:49:11.602Z,3.83
2019-06-28T17:51:59.356Z,3.63
2019-06-28T17:54:47.116Z,3.40
2019-06-28T17:57:34.894Z,3.50
2019-06-28T18:00:22.705Z,3.40
2019-06-28T18:03:10.469Z,3.43
2019-06-28T18:05:58.297Z,3.40
2019-06-28T18:08:38.710Z,3.47
2019-06-28T18:11:19.400Z,3.43
2019-06-28T18:14:00.169Z,3.87
2019-06-28T18:16:40.016Z,3.30
2019-06-28T18:19:27.774Z,3.77
2019-06-28T18:22:15.892Z,4.10
2019-06-28T18:28:17.793Z,3.97
2019-06-28T18:30:46.204Z,3.50
2019-06-28T18:33:33.979Z,3.10
2019-06-28T18:36:21.720Z,3.40
2019-06-28T18:39:09.492Z,3.10
2019-06-28T18:41:57.230Z,3.40
2019-06-28T18:44:44.996Z,3.80
2019-06-28T18:47:32.774Z,3.70
2019-06-28T18:50:20.524Z,3.70
2019-06-28T18:53:08.292Z,3.50
2019-06-28T18:55:56.107Z,3.70
2019-06-28T18:58:43.869Z,5.63
2019-06-28T19:01:31.726Z,4.60
2019-06-28T19:04:19.507Z,3.87
2019-06-28T19:07:07.313Z,4.20
2019-06-28T19:09:55.070Z,4.30
2019-06-28T19:12:42.808Z,4.17
2019-06-28T19:15:23.856Z,4.50
2019-06-28T19:18:04.240Z,4.23
2019-06-28T19:20:32.724Z,4.27
2019-06-28T19:23:20.475Z,4.03
2019-06-28T19:26:08.249Z,4.20
2019-06-28T19:28:56.007Z,4.27
2019-06-28T19:31:43.777Z,4.40
2019-06-28T19:34:31.836Z,5.20
2019-06-28T19:37:19.616Z,4.17
2019-06-28T19:43:02.049Z,4.63
2019-06-28T19:45:49.831Z,4.27
2019-06-28T19:48:37.589Z,4.50
2019-06-28T19:51:37.790Z,5.37
2019-06-28T19:57:12.819Z,4.97
2019-06-28T20:00:00.551Z,4.77
2019-06-28T20:02:28.980Z,5.13
2019-06-28T20:05:16.737Z,6.23
2019-06-28T20:07:56.988Z,5.87
2019-06-28T20:10:37.637Z,4.83
2019-06-28T20:13:18.165Z,4.63
2019-06-28T20:15:56.650Z,5.30
2019-06-28T20:18:44.408Z,4.80
2019-06-28T20:21:32.151Z,4.47
2019-06-28T20:24:19.969Z,4.37
2019-06-28T20:26:58.786Z,4.60
2019-06-28T20:29:46.548Z,4.07
2019-06-28T20:32:34.324Z,4.43
2019-06-28T20:35:22.412Z,4.73
2019-06-28T20:38:10.184Z,5.17
2019-06-28T20:40:58.008Z,4.33
2019-06-28T20:43:45.776Z,4.60
2019-06-28T20:46:33.574Z,4.50
2019-06-28T20:49:22.263Z,4.90
2019-06-28T20:52:15.269Z,4.97
2019-06-28T20:55:00.567Z,5.03
2019-06-28T20:57:48.344Z,4.70
2019-06-28T21:00:36.120Z,5.33
2019-06-28T21:03:24.108Z,5.20
2019-06-28T21:06:11.952Z,5.60
2019-06-28T21:08:59.876Z,6.70
2019-06-28T21:11:47.644Z,5.73
2019-06-28T21:14:35.412Z,6.17
2019-06-28T21:17:23.174Z,5.90
2019-06-28T21:23:24.853Z,6.33
2019-06-28T21:26:05.048Z,5.97
2019-06-28T21:28:48.041Z,6.50
2019-06-28T21:31:28.500Z,6.50
2019-06-28T21:33:56.937Z,6.67
2019-06-28T21:36:44.384Z,6.10
2019-06-28T21:39:32.134Z,7.00
2019-06-28T21:42:19.895Z,6.13
2019-06-28T21:45:07.950Z,6.33
2019-06-28T21:47:55.729Z,6.40
2019-06-28T21:50:43.475Z,7.00
2019-06-28T21:53:31.248Z,7.13
2019-06-28T21:56:19.012Z,7.00
2019-06-28T21:59:06.855Z,7.00
2019-06-28T22:01:35.280Z,7.33
2019-06-28T22:04:23.044Z,7.27
2019-06-28T22:07:10.803Z,6.93
2019-06-28T22:09:58.578Z,7.30
2019-06-28T22:12:46.327Z,6.23
2019-06-28T22:15:34.084Z,7.13
2019-06-28T22:18:21.830Z,7.10
2019-06-28T22:21:09.597Z,7.50
2019-06-28T22:23:57.349Z,7.50
2019-06-28T22:26:45.105Z,7.30
2019-06-28T22:29:32.860Z,7.20
2019-06-28T22:32:20.599Z,8.10
2019-06-28T22:35:08.416Z,8.07
2019-06-28T22:37:47.104Z,8.40
2019-06-28T22:40:34.904Z,8.70
2019-06-28T22:43:22.648Z,8.63
2019-06-28T22:46:10.608Z,7.93
2019-06-28T22:48:58.348Z,8.63
2019-06-28T22:51:46.112Z,7.87
2019-06-28T22:54:33.863Z,7.70
2019-06-28T22:57:21.640Z,9.00
2019-06-28T23:00:09.484Z,8.47
2019-06-28T23:02:57.228Z,8.67
2019-06-28T23:05:45.005Z,9.00
2019-06-28T23:08:32.776Z,8.90
2019-06-28T23:11:20.544Z,8.83
2019-06-28T23:14:08.284Z,9.70
2019-06-28T23:16:56.057Z,9.40
2019-06-28T23:19:43.822Z,9.00
2019-06-28T23:22:31.575Z,8.83
2019-06-28T23:25:12.213Z,9.80
2019-06-28T23:27:52.744Z,8.93
2019-06-28T23:30:34.142Z,9.13
2019-06-28T23:33:12.660Z,9.53
2019-06-28T23:35:52.947Z,9.43
2019-06-28T23:38:33.562Z,9.73
2019-06-28T23:41:12.019Z,9.60
2019-06-28T23:43:59.786Z,9.30
2019-06-28T23:46:47.562Z,9.80
2019-06-28T23:49:35.424Z,10.90
2019-06-28T23:52:23.188Z,10.30
2019-06-28T23:55:11.184Z,9.97
2019-06-28T23:57:58.957Z,10.13
